Time;durP1;ratioP1;P1;durP2;ratioP2;P2;SDS_P1;SDS_P2;PMS_P1;PMS_P2;Temp;Humidity;BMP_temperature;BMP_pressure;BME280_temperature;BME280_humidity;BME280_pressure;Samples;Min_cycle;Max_cycle;Signal;HPM_P1;HPM_P2
2024/04/20 00:01:38;;;;;;;2.53;1.10;;;;;;;;;;5215986;27;20082;-79
2024/04/20 00:04:05;;;;;;;1.13;1.03;;;;;;;;;;5243897;27;20014;-78
2024/04/20 00:06:30;;;;;;;1.73;1.00;;;;;;;;;;5246295;27;20042;-78
2024/04/20 00:08:56;;;;;;;1.77;1.30;;;;;;;;;;5246748;27;20003;-79
2024/04/20 00:11:25;;;;;;;1.33;1.23;;;;;;;;;;5243686;27;20011;-79
2024/04/20 00:13:52;;;;;;;0.90;0.90;;;;;;;;;;5243853;27;20003;-79
2024/04/20 00:16:19;;;;;;;3.40;1.13;;;;;;;;;;5243815;27;20003;-78
2024/04/20 00:18:47;;;;;;;2.20;0.93;;;;;;;;;;5245271;27;20007;-80
2024/04/20 00:21:12;;;;;;;1.27;1.00;;;;;;;;;;5235601;27;20072;-80
2024/04/20 00:23:41;;;;;;;1.73;1.20;;;;;;;;;;5212784;27;20007;-79
2024/04/20 00:26:07;;;;;;;1.33;1.03;;;;;;;;;;5211112;27;20004;-78
2024/04/20 00:28:34;;;;;;;1.27;0.90;;;;;;;;;;5210827;27;20008;-78
2024/04/20 00:31:01;;;;;;;1.53;1.30;;;;;;;;;;5210993;27;20016;-78
2024/04/20 00:33:28;;;;;;;1.80;1.30;;;;;;;;;;5185175;27;20008;-77
2024/04/20 00:35:54;;;;;;;1.20;1.07;;;;;;;;;;5213833;27;20415;-76
2024/04/20 00:38:20;;;;;;;2.47;1.20;;;;;;;;;;5212498;27;20008;-77
2024/04/20 00:40:56;;;;;;;5.53;1.40;;;;;;;;;;5210955;27;20039;-80
2024/04/20 00:43:22;;;;;;;2.13;1.30;;;;;;;;;;5210818;27;20003;-76
2024/04/20 00:45:48;;;;;;;2.70;1.80;;;;;;;;;;5211849;27;20026;-77
2024/04/20 00:48:15;;;;;;;2.10;1.37;;;;;;;;;;5211757;27;19999;-78
2024/04/20 00:50:42;;;;;;;2.63;1.10;;;;;;;;;;5212355;27;20004;-77
2024/04/20 00:53:11;;;;;;;2.00;1.53;;;;;;;;;;5210429;27;19999;-78
2024/04/20 00:55:37;;;;;;;1.20;1.10;;;;;;;;;;5210021;27;20022;-79
2024/04/20 00:58:07;;;;;;;2.33;1.07;;;;;;;;;;5209832;27;20066;-78
2024/04/20 01:00:37;;;;;;;1.47;1.20;;;;;;;;;;5182575;27;20004;-75
2024/04/20 01:03:03;;;;;;;1.80;1.33;;;;;;;;;;5211795;27;20008;-76
2024/04/20 01:05:29;;;;;;;0.83;0.83;;;;;;;;;;5210271;27;20008;-78
2024/04/20 01:07:55;;;;;;;1.50;1.20;;;;;;;;;;5209966;27;20040;-77
2024/04/20 01:10:21;;;;;;;1.27;1.17;;;;;;;;;;5213147;27;20007;-79
2024/04/20 01:12:47;;;;;;;0.97;0.90;;;;;;;;;;5211169;27;20007;-79
2024/04/20 01:15:12;;;;;;;1.53;1.10;;;;;;;;;;5210020;27;20004;-76
2024/04/20 01:17:38;;;;;;;1.17;0.87;;;;;;;;;;5209331;27;20019;-78
2024/04/20 01:20:13;;;;;;;2.00;1.30;;;;;;;;;;5208586;27;20008;-78
2024/04/20 01:22:41;;;;;;;2.10;0.80;;;;;;;;;;5208235;27;20016;-76
2024/04/20 01:25:09;;;;;;;2.60;0.90;;;;;;;;;;5208457;27;20023;-77
2024/04/20 01:27:38;;;;;;;1.47;1.10;;;;;;;;;;5210341;27;20412;-77
2024/04/20 01:30:08;;;;;;;1.00;0.90;;;;;;;;;;5208288;27;20014;-77
2024/04/20 01:32:37;;;;;;;1.53;1.10;;;;;;;;;;5181885;27;20024;-75
2024/04/20 01:35:03;;;;;;;1.70;1.20;;;;;;;;;;5208695;27;20004;-78
2024/04/20 01:37:30;;;;;;;1.13;0.97;;;;;;;;;;5208968;27;20087;-77
2024/04/20 01:39:56;;;;;;;1.23;1.13;;;;;;;;;;5209048;27;20035;-78
2024/04/20 01:42:24;;;;;;;1.03;1.00;;;;;;;;;;5208452;27;20223;-75
2024/04/20 01:44:51;;;;;;;1.07;0.93;;;;;;;;;;5211605;27;20003;-77
2024/04/20 01:47:28;;;;;;;2.10;1.33;;;;;;;;;;5214376;27;20007;-77
2024/04/20 01:49:55;;;;;;;1.33;1.10;;;;;;;;;;5215536;27;19999;-75
2024/04/20 01:52:21;;;;;;;2.90;1.30;;;;;;;;;;5244086;27;20006;-78
2024/04/20 01:54:49;;;;;;;1.63;1.20;;;;;;;;;;5252401;27;20017;-78
2024/04/20 01:57:15;;;;;;;1.47;0.90;;;;;;;;;;5251006;27;20025;-77
2024/04/20 01:59:41;;;;;;;2.37;1.10;;;;;;;;;;5250677;27;20002;-78
2024/04/20 02:02:07;;;;;;;2.87;1.33;;;;;;;;;;5249980;27;20006;-78
2024/04/20 02:04:33;;;;;;;1.23;1.10;;;;;;;;;;5249184;27;20350;-78
2024/04/20 02:06:59;;;;;;;2.80;1.30;;;;;;;;;;5278083;27;20008;-77
2024/04/20 02:09:25;;;;;;;1.27;1.00;;;;;;;;;;5248107;27;20002;-77
2024/04/20 02:11:51;;;;;;;3.60;1.40;;;;;;;;;;5248825;27;19998;-77
2024/04/20 02:14:18;;;;;;;1.30;1.10;;;;;;;;;;5250189;27;19998;-79
2024/04/20 02:16:43;;;;;;;0.83;0.83;;;;;;;;;;5248948;27;20006;-79
2024/04/20 02:19:12;;;;;;;2.10;1.17;;;;;;;;;;5278263;27;19998;-77
2024/04/20 02:21:41;;;;;;;2.37;1.33;;;;;;;;;;5278359;27;20466;-76
2024/04/20 02:24:07;;;;;;;3.97;1.40;;;;;;;;;;5248742;27;20010;-78
2024/04/20 02:26:37;;;;;;;2.43;1.00;;;;;;;;;;5249198;27;20379;-78
2024/04/20 02:29:03;;;;;;;2.30;1.00;;;;;;;;;;5195218;27;20476;-78
2024/04/20 02:31:31;;;;;;;3.53;1.27;;;;;;;;;;5248852;27;20339;-77
2024/04/20 02:33:58;;;;;;;1.57;1.00;;;;;;;;;;5249525;27;20017;-77
2024/04/20 02:36:26;;;;;;;0.87;0.87;;;;;;;;;;5249545;27;20077;-78
2024/04/20 02:38:52;;;;;;;0.80;0.80;;;;;;;;;;5249724;27;20006;-79
2024/04/20 02:41:22;;;;;;;0.90;0.63;;;;;;;;;;5251730;27;20453;-79
2024/04/20 02:43:47;;;;;;;0.63;0.63;;;;;;;;;;5251319;27;20006;-77
2024/04/20 02:46:14;;;;;;;0.80;0.80;;;;;;;;;;5281300;27;20013;-79
2024/04/20 02:48:40;;;;;;;0.77;0.77;;;;;;;;;;5279505;27;20017;-76
2024/04/20 02:51:05;;;;;;;2.47;0.73;;;;;;;;;;5248098;27;20014;-77
2024/04/20 02:53:31;;;;;;;2.43;1.03;;;;;;;;;;5277915;27;20367;-78
2024/04/20 02:55:57;;;;;;;4.10;0.90;;;;;;;;;;5247792;27;20002;-78
2024/04/20 02:58:24;;;;;;;1.57;1.10;;;;;;;;;;5250329;27;20014;-79
2024/04/20 03:00:55;;;;;;;1.40;0.90;;;;;;;;;;5250971;27;20002;-78
2024/04/20 03:03:21;;;;;;;0.93;0.80;;;;;;;;;;5280796;27;20017;-79
2024/04/20 03:05:46;;;;;;;1.97;0.97;;;;;;;;;;5250555;27;20218;-77
2024/04/20 03:08:12;;;;;;;3.70;0.97;;;;;;;;;;5250643;27;20017;-76
2024/04/20 03:10:38;;;;;;;1.37;1.20;;;;;;;;;;5280438;27;20362;-80
2024/04/20 03:13:04;;;;;;;3.07;1.00;;;;;;;;;;5250149;27;20012;-80
2024/04/20 03:15:30;;;;;;;1.27;0.77;;;;;;;;;;5249562;27;20002;-78
2024/04/20 03:17:56;;;;;;;2.43;1.07;;;;;;;;;;5250046;27;20014;-77
2024/04/20 03:20:22;;;;;;;1.10;1.10;;;;;;;;;;5249994;27;20003;-79
2024/04/20 03:22:47;;;;;;;1.13;0.90;;;;;;;;;;5250057;27;20128;-78
2024/04/20 03:25:15;;;;;;;2.90;1.10;;;;;;;;;;5250710;27;20002;-77
2024/04/20 03:27:42;;;;;;;1.40;1.10;;;;;;;;;;5248596;27;20466;-78
2024/04/20 03:30:08;;;;;;;1.17;0.90;;;;;;;;;;5278352;27;20006;-78
2024/04/20 03:32:34;;;;;;;0.97;0.90;;;;;;;;;;5279689;27;20002;-80
2024/04/20 03:35:00;;;;;;;1.07;1.00;;;;;;;;;;5248508;27;19999;-79
2024/04/20 03:37:26;;;;;;;1.90;1.20;;;;;;;;;;5248204;27;20013;-77
2024/04/20 03:39:52;;;;;;;1.80;0.83;;;;;;;;;;5277431;27;20017;-77
2024/04/20 03:42:18;;;;;;;1.43;0.90;;;;;;;;;;5247518;27;20465;-78
2024/04/20 03:44:44;;;;;;;1.17;1.07;;;;;;;;;;5248379;27;20316;-79
2024/04/20 03:47:09;;;;;;;1.20;1.10;;;;;;;;;;5248093;27;20002;-78
2024/04/20 03:49:36;;;;;;;3.17;1.10;;;;;;;;;;5247783;27;20013;-77
2024/04/20 03:52:05;;;;;;;1.53;1.00;;;;;;;;;;5249191;27;20002;-77
2024/04/20 03:54:31;;;;;;;1.20;0.87;;;;;;;;;;5247683;27;20006;-78
2024/04/20 03:56:57;;;;;;;2.53;1.30;;;;;;;;;;5248182;27;20013;-78
2024/04/20 03:59:23;;;;;;;3.60;1.17;;;;;;;;;;5247689;27;20015;-78
2024/04/20 04:01:48;;;;;;;1.40;1.27;;;;;;;;;;5246616;27;20010;-80
2024/04/20 04:04:15;;;;;;;2.50;1.13;;;;;;;;;;5246811;27;20524;-78
2024/04/20 04:06:41;;;;;;;3.03;1.10;;;;;;;;;;5245081;27;20446;-78
2024/04/20 04:09:07;;;;;;;1.57;1.00;;;;;;;;;;5247231;27;20017;-78
2024/04/20 04:11:32;;;;;;;1.27;1.03;;;;;;;;;;5276235;27;20318;-78
2024/04/20 04:13:58;;;;;;;0.90;0.73;;;;;;;;;;5246415;27;20021;-78
2024/04/20 04:16:24;;;;;;;3.70;1.03;;;;;;;;;;5246213;27;20096;-78
2024/04/20 04:18:50;;;;;;;1.37;0.87;;;;;;;;;;5245966;27;20010;-78
2024/04/20 04:21:16;;;;;;;1.13;0.60;;;;;;;;;;5246649;27;20006;-77
2024/04/20 04:23:42;;;;;;;0.50;0.50;;;;;;;;;;5246537;27;20010;-78
2024/04/20 04:27:18;;;;;;;;;;;;;;;;;;;;;
2024/04/20 04:33:25;;;;;;;0.93;0.70;;;;;;;;;;5177942;27;20365;-78
2024/04/20 04:35:57;;;;;;;0.97;0.90;;;;;;;;;;5275271;27;19998;-79
2024/04/20 04:38:23;;;;;;;3.43;0.97;;;;;;;;;;5245333;27;20026;-81
2024/04/20 04:40:49;;;;;;;3.17;0.90;;;;;;;;;;5248134;27;20003;-77
2024/04/20 04:43:15;;;;;;;1.10;0.90;;;;;;;;;;5287060;27;20002;-77
2024/04/20 04:45:41;;;;;;;0.70;0.70;;;;;;;;;;5255507;27;20002;-77
2024/04/20 04:48:08;;;;;;;0.73;0.70;;;;;;;;;;5249629;27;20034;-78
2024/04/20 04:50:34;;;;;;;0.60;0.60;;;;;;;;;;5247354;27;20002;-79
2024/04/20 04:53:00;;;;;;;0.80;0.60;;;;;;;;;;5247459;27;20003;-78
2024/04/20 04:55:28;;;;;;;0.60;0.60;;;;;;;;;;5249643;27;20073;-78
2024/04/20 04:57:53;;;;;;;0.63;0.60;;;;;;;;;;5283975;27;20010;-77
2024/04/20 05:00:19;;;;;;;1.17;0.60;;;;;;;;;;5254933;27;20026;-77
2024/04/20 05:02:45;;;;;;;2.57;0.90;;;;;;;;;;5280663;27;19998;-78
2024/04/20 05:05:11;;;;;;;0.70;0.70;;;;;;;;;;5277944;27;20415;-78
2024/04/20 05:07:36;;;;;;;0.83;0.63;;;;;;;;;;5245386;27;20566;-79
2024/04/20 05:10:03;;;;;;;1.60;0.70;;;;;;;;;;5245374;27;20104;-78
2024/04/20 05:12:29;;;;;;;1.00;0.60;;;;;;;;;;5245006;27;20085;-78
2024/04/20 05:14:56;;;;;;;1.30;0.70;;;;;;;;;;5245325;27;20006;-79
2024/04/20 05:17:22;;;;;;;1.30;0.70;;;;;;;;;;5217963;27;19995;-79
2024/04/20 05:19:47;;;;;;;0.80;0.80;;;;;;;;;;5244758;27;20434;-78
2024/04/20 05:22:13;;;;;;;0.63;0.63;;;;;;;;;;5244823;27;20002;-80
2024/04/20 05:24:39;;;;;;;1.13;0.80;;;;;;;;;;5244392;27;19999;-79
2024/04/20 05:27:06;;;;;;;0.83;0.70;;;;;;;;;;5274500;27;19998;-78
2024/04/20 05:29:31;;;;;;;1.00;0.87;;;;;;;;;;5245691;27;20100;-78
2024/04/20 05:31:57;;;;;;;0.67;0.67;;;;;;;;;;5245825;27;20002;-78
2024/04/20 05:34:23;;;;;;;1.30;0.73;;;;;;;;;;5245439;27;20009;-78
2024/04/20 05:36:49;;;;;;;1.20;0.73;;;;;;;;;;5244747;27;20002;-78
2024/04/20 05:39:16;;;;;;;1.13;0.50;;;;;;;;;;5245752;27;20002;-80
2024/04/20 05:41:43;;;;;;;1.67;0.53;;;;;;;;;;5245245;27;20093;-78
2024/04/20 05:44:08;;;;;;;0.53;0.53;;;;;;;;;;5274846;27;20080;-78
2024/04/20 05:46:34;;;;;;;3.70;0.70;;;;;;;;;;5244610;27;20399;-79
2024/04/20 05:49:00;;;;;;;1.87;0.70;;;;;;;;;;5245355;27;20073;-78
2024/04/20 05:51:26;;;;;;;0.67;0.40;;;;;;;;;;5244652;27;19998;-78
2024/04/20 05:53:52;;;;;;;1.07;0.60;;;;;;;;;;5215565;27;20013;-79
2024/04/20 05:56:18;;;;;;;1.13;0.60;;;;;;;;;;5273732;27;20009;-78
2024/04/20 05:58:46;;;;;;;0.60;0.60;;;;;;;;;;5244100;27;20002;-79
2024/04/20 06:01:12;;;;;;;1.57;0.93;;;;;;;;;;5273660;27;19994;-78
2024/04/20 06:03:38;;;;;;;0.55;0.55;;;;;;;;;;5243331;27;20006;-81
2024/04/20 06:06:05;;;;;;;0.57;0.57;;;;;;;;;;5243320;27;19999;-79
2024/04/20 06:08:30;;;;;;;1.23;0.50;;;;;;;;;;5272661;27;20443;-79
2024/04/20 06:10:58;;;;;;;0.50;0.50;;;;;;;;;;5273116;27;19998;-79
2024/04/20 06:13:24;;;;;;;1.48;0.40;;;;;;;;;;5242919;27;19994;-75
2024/04/20 06:15:50;;;;;;;0.47;0.40;;;;;;;;;;5242167;27;20021;-75
2024/04/20 06:18:16;;;;;;;0.60;0.60;;;;;;;;;;5242589;27;20414;-75
2024/04/20 06:20:42;;;;;;;0.95;0.70;;;;;;;;;;5241793;27;20002;-76
2024/04/20 06:23:10;;;;;;;1.52;0.60;;;;;;;;;;5272640;27;20391;-76
2024/04/20 06:25:39;;;;;;;0.53;0.40;;;;;;;;;;5271003;27;20104;-75
2024/04/20 06:28:06;;;;;;;0.83;0.60;;;;;;;;;;5242964;27;20010;-75
2024/04/20 06:30:32;;;;;;;1.13;0.83;;;;;;;;;;5244110;27;20002;-76
2024/04/20 06:32:57;;;;;;;0.80;0.80;;;;;;;;;;5245918;27;20014;-75
2024/04/20 06:35:23;;;;;;;1.38;0.60;;;;;;;;;;5245845;27;20013;-76
2024/04/20 06:37:49;;;;;;;0.57;0.57;;;;;;;;;;5275624;27;20021;-75
2024/04/20 06:40:15;;;;;;;0.75;0.75;;;;;;;;;;5275623;27;20010;-76
2024/04/20 06:42:46;;;;;;;0.52;0.50;;;;;;;;;;5245974;27;20002;-75
2024/04/20 06:45:21;;;;;;;0.43;0.43;;;;;;;;;;5247758;27;20021;-76
2024/04/20 06:47:48;;;;;;;1.33;0.80;;;;;;;;;;5249258;27;20082;-75
2024/04/20 06:50:18;;;;;;;1.88;0.80;;;;;;;;;;5248281;27;20018;-75
2024/04/20 06:52:45;;;;;;;2.30;0.90;;;;;;;;;;5248966;27;20127;-77
2024/04/20 06:55:24;;;;;;;1.25;0.90;;;;;;;;;;5278547;27;20017;-76
2024/04/20 06:57:50;;;;;;;0.65;0.40;;;;;;;;;;5249334;27;20002;-75
2024/04/20 07:00:17;;;;;;;0.40;0.40;;;;;;;;;;5249034;27;20013;-74
2024/04/20 07:02:43;;;;;;;0.40;0.40;;;;;;;;;;5275286;27;20006;-75
2024/04/20 07:05:09;;;;;;;1.63;1.27;;;;;;;;;;5244469;27;20038;-76
2024/04/20 07:07:34;;;;;;;0.85;0.70;;;;;;;;;;5245015;27;20806;-75
2024/04/20 07:10:00;;;;;;;0.75;0.47;;;;;;;;;;5274345;27;20006;-76
2024/04/20 07:12:26;;;;;;;1.75;0.70;;;;;;;;;;5245373;27;20042;-76
2024/04/20 07:14:52;;;;;;;0.57;0.50;;;;;;;;;;5243867;27;20010;-75
2024/04/20 07:17:17;;;;;;;0.88;0.50;;;;;;;;;;5273401;27;20017;-76
2024/04/20 07:19:43;;;;;;;1.50;0.73;;;;;;;;;;5243455;27;20010;-74
2024/04/20 07:22:08;;;;;;;1.25;0.63;;;;;;;;;;5243971;27;20002;-76
2024/04/20 07:24:34;;;;;;;0.68;0.68;;;;;;;;;;5243433;27;20034;-76
2024/04/20 07:26:59;;;;;;;0.40;0.40;;;;;;;;;;5243141;27;20080;-76
2024/04/20 07:29:25;;;;;;;3.92;0.60;;;;;;;;;;5273544;27;20017;-76
2024/04/20 07:31:51;;;;;;;0.75;0.57;;;;;;;;;;5243724;27;20038;-77
2024/04/20 07:34:30;;;;;;;0.63;0.63;;;;;;;;;;5243590;27;19999;-75
2024/04/20 07:36:58;;;;;;;0.45;0.45;;;;;;;;;;5272121;27;20525;-76
2024/04/20 07:39:24;;;;;;;1.27;0.80;;;;;;;;;;5273316;27;20014;-75
2024/04/20 07:41:50;;;;;;;3.92;0.60;;;;;;;;;;5242805;27;20006;-75
2024/04/20 07:44:15;;;;;;;1.15;0.43;;;;;;;;;;5243395;27;20002;-74
2024/04/20 07:46:43;;;;;;;0.60;0.40;;;;;;;;;;5243649;27;20084;-76
2024/04/20 07:49:09;;;;;;;0.45;0.40;;;;;;;;;;5272994;27;20020;-75
2024/04/20 07:51:35;;;;;;;0.50;0.40;;;;;;;;;;5243000;27;20003;-76
2024/04/20 07:54:01;;;;;;;0.30;0.28;;;;;;;;;;5272982;27;20683;-75
2024/04/20 07:56:26;;;;;;;0.50;0.40;;;;;;;;;;5242783;27;20018;-76
2024/04/20 07:58:52;;;;;;;0.50;0.50;;;;;;;;;;5242392;27;20010;-76
2024/04/20 08:01:17;;;;;;;0.50;0.50;;;;;;;;;;5242257;27;20526;-76
2024/04/20 08:03:44;;;;;;;0.32;0.32;;;;;;;;;;5242550;27;20019;-76
2024/04/20 08:06:10;;;;;;;0.52;0.30;;;;;;;;;;5242633;27;20091;-75
2024/04/20 08:08:36;;;;;;;0.65;0.40;;;;;;;;;;5272365;27;20002;-76
2024/04/20 08:11:02;;;;;;;0.73;0.60;;;;;;;;;;5242641;27;20038;-76
2024/04/20 08:13:29;;;;;;;0.52;0.40;;;;;;;;;;5242822;27;20021;-75
2024/04/20 08:15:55;;;;;;;1.90;0.45;;;;;;;;;;5272987;27;20007;-76
2024/04/20 08:18:21;;;;;;;1.85;0.70;;;;;;;;;;5243313;27;20006;-76
2024/04/20 08:20:53;;;;;;;0.80;0.80;;;;;;;;;;5242706;27;20092;-75
2024/04/20 08:23:18;;;;;;;2.13;1.05;;;;;;;;;;5271926;27;19999;-76
2024/04/20 08:25:44;;;;;;;1.60;0.60;;;;;;;;;;5272140;27;20038;-76
2024/04/20 08:28:10;;;;;;;0.75;0.75;;;;;;;;;;5242836;27;20021;-76
2024/04/20 08:30:36;;;;;;;0.60;0.60;;;;;;;;;;5272686;27;20544;-75
2024/04/20 08:33:01;;;;;;;0.50;0.50;;;;;;;;;;5243921;27;19998;-75
2024/04/20 08:35:27;;;;;;;1.57;0.40;;;;;;;;;;5244557;27;20014;-75
2024/04/20 08:37:52;;;;;;;1.73;0.50;;;;;;;;;;5242762;27;20490;-75
2024/04/20 08:40:18;;;;;;;0.90;0.87;;;;;;;;;;5242726;27;20065;-77
2024/04/20 08:42:46;;;;;;;1.43;0.80;;;;;;;;;;5242669;27;20076;-76
2024/04/20 08:45:14;;;;;;;2.72;0.68;;;;;;;;;;5272646;27;20010;-75
2024/04/20 08:47:44;;;;;;;1.25;0.70;;;;;;;;;;5242595;27;20002;-76
2024/04/20 08:50:11;;;;;;;0.77;0.77;;;;;;;;;;5242415;27;20459;-77
2024/04/20 08:52:41;;;;;;;8.02;1.15;;;;;;;;;;5241667;27;20002;-77
2024/04/20 08:55:09;;;;;;;1.13;0.40;;;;;;;;;;5242878;27;19998;-76
2024/04/20 08:57:37;;;;;;;1.38;0.30;;;;;;;;;;5272115;27;20006;-76
2024/04/20 09:00:07;;;;;;;1.45;0.47;;;;;;;;;;5241837;27;19998;-75
2024/04/20 09:02:34;;;;;;;1.00;0.40;;;;;;;;;;5241612;27;20016;-76
2024/04/20 09:05:03;;;;;;;2.90;0.88;;;;;;;;;;5241806;27;20014;-76
2024/04/20 09:07:28;;;;;;;0.20;0.20;;;;;;;;;;5242166;27;20084;-77
2024/04/20 09:09:54;;;;;;;0.68;0.68;;;;;;;;;;5272102;27;20003;-76
2024/04/20 09:12:20;;;;;;;1.45;0.60;;;;;;;;;;5241811;27;20013;-76
2024/04/20 09:14:45;;;;;;;0.60;0.60;;;;;;;;;;5271466;27;20056;-77
2024/04/20 09:17:12;;;;;;;0.95;0.68;;;;;;;;;;5271482;27;20017;-76
2024/04/20 09:19:38;;;;;;;0.80;0.80;;;;;;;;;;5241860;27;20073;-76
2024/04/20 09:22:08;;;;;;;1.60;0.88;;;;;;;;;;5271635;27;20015;-76
2024/04/20 09:24:33;;;;;;;1.67;0.60;;;;;;;;;;5241608;27;20017;-76
2024/04/20 09:26:59;;;;;;;0.93;0.93;;;;;;;;;;5241593;27;20031;-77
2024/04/20 09:29:25;;;;;;;1.00;0.80;;;;;;;;;;5241622;27;20002;-76
2024/04/20 09:31:52;;;;;;;1.50;0.95;;;;;;;;;;5241399;27;20423;-77
2024/04/20 09:34:23;;;;;;;0.80;0.70;;;;;;;;;;5271541;27;20439;-74
2024/04/20 09:36:48;;;;;;;1.00;0.80;;;;;;;;;;5241603;27;20522;-76
2024/04/20 09:39:14;;;;;;;4.60;0.68;;;;;;;;;;5241307;27;20014;-77
2024/04/20 09:41:46;;;;;;;5.53;0.80;;;;;;;;;;5241377;27;20018;-77
2024/04/20 09:44:14;;;;;;;1.20;0.40;;;;;;;;;;5241416;27;20006;-76
2024/04/20 09:46:40;;;;;;;0.93;0.40;;;;;;;;;;5240952;27;20007;-76
2024/04/20 09:49:07;;;;;;;3.78;0.63;;;;;;;;;;5240885;27;20006;-76
2024/04/20 09:51:41;;;;;;;3.45;0.80;;;;;;;;;;5240799;27;20370;-76
2024/04/20 09:54:14;;;;;;;0.77;0.47;;;;;;;;;;5241221;27;20106;-76
2024/04/20 09:56:42;;;;;;;0.65;0.60;;;;;;;;;;5241408;27;20326;-76
2024/04/20 09:59:08;;;;;;;0.70;0.50;;;;;;;;;;5270541;27;20517;-74
2024/04/20 10:01:35;;;;;;;0.95;0.68;;;;;;;;;;5240963;27;20458;-76
2024/04/20 10:04:02;;;;;;;2.33;0.68;;;;;;;;;;5270932;27;20014;-76
2024/04/20 10:06:27;;;;;;;1.02;0.70;;;;;;;;;;5244455;27;20038;-77
2024/04/20 10:08:53;;;;;;;0.93;0.40;;;;;;;;;;5244486;27;20026;-76
2024/04/20 10:11:19;;;;;;;1.17;0.43;;;;;;;;;;5245144;27;20022;-76
2024/04/20 10:13:47;;;;;;;1.30;0.55;;;;;;;;;;5245199;27;20003;-77
2024/04/20 10:16:16;;;;;;;0.50;0.43;;;;;;;;;;5275546;27;20018;-77
2024/04/20 10:18:43;;;;;;;1.13;0.65;;;;;;;;;;5274145;27;20419;-76
2024/04/20 10:21:14;;;;;;;0.40;0.40;;;;;;;;;;5273854;27;20084;-78
2024/04/20 10:23:42;;;;;;;4.88;2.67;;;;;;;;;;5244661;27;20007;-77
2024/04/20 10:26:08;;;;;;;0.93;0.60;;;;;;;;;;5244049;27;20447;-78
2024/04/20 10:28:38;;;;;;;0.60;0.57;;;;;;;;;;5216498;27;20006;-76
2024/04/20 10:31:04;;;;;;;0.70;0.65;;;;;;;;;;5243854;27;20006;-76
2024/04/20 10:33:41;;;;;;;1.58;0.60;;;;;;;;;;5243900;27;20466;-76
2024/04/20 10:36:12;;;;;;;1.52;0.75;;;;;;;;;;5243703;27;20039;-77
2024/04/20 10:38:38;;;;;;;0.55;0.50;;;;;;;;;;5243724;27;20008;-76
2024/04/20 10:41:13;;;;;;;3.40;0.75;;;;;;;;;;5243720;27;20314;-76
2024/04/20 10:43:39;;;;;;;0.52;0.52;;;;;;;;;;5244164;27;20014;-77
2024/04/20 10:46:05;;;;;;;1.88;0.70;;;;;;;;;;5273496;27;20006;-76
2024/04/20 10:48:34;;;;;;;1.50;0.82;;;;;;;;;;5273545;27;20006;-77
2024/04/20 10:51:04;;;;;;;0.82;0.63;;;;;;;;;;5216640;27;20014;-77
2024/04/20 10:53:29;;;;;;;2.47;0.70;;;;;;;;;;5244163;27;20017;-79
2024/04/20 10:55:58;;;;;;;0.50;0.50;;;;;;;;;;5244041;27;20003;-75
2024/04/20 10:58:25;;;;;;;0.60;0.60;;;;;;;;;;5272906;27;20102;-76
2024/04/20 11:00:59;;;;;;;1.13;0.50;;;;;;;;;;5273754;27;20010;-77
2024/04/20 11:03:25;;;;;;;0.63;0.60;;;;;;;;;;5243884;27;20003;-76
2024/04/20 11:05:54;;;;;;;1.17;0.50;;;;;;;;;;5244233;27;20030;-77
2024/04/20 11:08:20;;;;;;;1.42;0.88;;;;;;;;;;5244009;27;20017;-76
2024/04/20 11:11:04;;;;;;;1.23;1.00;;;;;;;;;;5216131;27;20002;-78
2024/04/20 11:13:33;;;;;;;1.42;1.33;;;;;;;;;;5244157;27;20089;-76
2024/04/20 11:15:59;;;;;;;0.68;0.68;;;;;;;;;;5273434;27;20079;-76
2024/04/20 11:18:25;;;;;;;2.17;0.75;;;;;;;;;;5273642;27;20070;-76
2024/04/20 11:20:51;;;;;;;0.83;0.83;;;;;;;;;;5243686;27;20018;-77
2024/04/20 11:23:17;;;;;;;2.63;1.17;;;;;;;;;;5243241;27;20010;-76
2024/04/20 11:25:53;;;;;;;1.48;0.90;;;;;;;;;;5243361;27;20069;-76
2024/04/20 11:28:23;;;;;;;1.38;0.82;;;;;;;;;;5243255;27;19998;-75
2024/04/20 11:30:49;;;;;;;1.67;0.93;;;;;;;;;;5243904;27;20062;-74
2024/04/20 11:33:16;;;;;;;2.38;1.10;;;;;;;;;;5273238;27;20007;-76
2024/04/20 11:35:49;;;;;;;2.83;1.55;;;;;;;;;;5273378;27;20473;-75
2024/04/20 11:38:15;;;;;;;2.00;1.08;;;;;;;;;;5242894;27;20121;-76
2024/04/20 11:40:48;;;;;;;2.25;1.30;;;;;;;;;;5243129;27;20543;-76
2024/04/20 11:43:24;;;;;;;3.00;1.25;;;;;;;;;;5273140;27;20020;-76
2024/04/20 11:45:54;;;;;;;4.20;1.67;;;;;;;;;;5243541;27;20046;-76
2024/04/20 11:48:32;;;;;;;2.60;1.80;;;;;;;;;;5242576;27;20006;-76
2024/04/20 11:51:04;;;;;;;1.63;0.90;;;;;;;;;;5242559;27;20006;-75
2024/04/20 11:56:18;;;;;;;3.28;1.42;;;;;;;;;;5247715;27;20338;-76
2024/04/20 11:58:48;;;;;;;2.35;1.10;;;;;;;;;;5242693;27;20017;-77
2024/04/20 12:01:14;;;;;;;1.63;0.82;;;;;;;;;;5242708;27;20002;-77
2024/04/20 12:03:39;;;;;;;2.30;1.25;;;;;;;;;;5242802;27;20059;-76
2024/04/20 12:06:09;;;;;;;1.63;0.98;;;;;;;;;;5242253;27;20002;-75
2024/04/20 12:08:35;;;;;;;1.42;0.82;;;;;;;;;;5242421;27;20080;-76
2024/04/20 12:11:00;;;;;;;1.20;0.82;;;;;;;;;;5272274;27;20006;-76
2024/04/20 12:13:27;;;;;;;0.63;0.63;;;;;;;;;;5242763;27;20053;-76
2024/04/20 12:15:53;;;;;;;2.92;1.20;;;;;;;;;;5242873;27;20002;-75
2024/04/20 12:18:20;;;;;;;3.00;1.75;;;;;;;;;;5242165;27;20485;-77
2024/04/20 12:20:46;;;;;;;1.02;0.93;;;;;;;;;;5242422;27;20010;-76
2024/04/20 12:23:11;;;;;;;1.13;0.90;;;;;;;;;;5241824;27;20002;-76
2024/04/20 12:25:37;;;;;;;4.07;1.52;;;;;;;;;;5242783;27;20493;-76
2024/04/20 12:28:03;;;;;;;1.73;1.20;;;;;;;;;;5241369;27;19998;-76
2024/04/20 12:30:30;;;;;;;1.20;1.10;;;;;;;;;;5242665;27;19998;-76
2024/04/20 12:32:56;;;;;;;2.78;0.90;;;;;;;;;;5242473;27;20485;-76
2024/04/20 12:35:21;;;;;;;1.65;1.25;;;;;;;;;;5241834;27;20034;-76
2024/04/20 12:37:47;;;;;;;2.25;1.80;;;;;;;;;;5242730;27;20010;-75
2024/04/20 12:40:15;;;;;;;2.75;1.40;;;;;;;;;;5241769;27;20002;-76
2024/04/20 12:42:40;;;;;;;3.03;1.20;;;;;;;;;;5242484;27;20010;-76
2024/04/20 12:45:07;;;;;;;2.45;1.50;;;;;;;;;;5241929;27;20407;-76
2024/04/20 12:47:33;;;;;;;1.40;1.25;;;;;;;;;;5242593;27;20002;-76
2024/04/20 12:49:58;;;;;;;31.63;2.80;;;;;;;;;;5242056;27;20002;-75
2024/04/20 12:52:24;;;;;;;3.65;1.20;;;;;;;;;;5241858;27;20006;-76
2024/04/20 12:54:50;;;;;;;4.68;2.00;;;;;;;;;;5271846;27;20013;-76
2024/04/20 12:57:15;;;;;;;6.43;1.25;;;;;;;;;;5271262;27;20560;-76
2024/04/20 12:59:41;;;;;;;1.67;1.20;;;;;;;;;;5272003;27;20500;-76
2024/04/20 13:02:06;;;;;;;1.27;0.80;;;;;;;;;;5272180;27;20006;-76
2024/04/20 13:04:33;;;;;;;1.15;1.08;;;;;;;;;;5242164;27;19999;-76
2024/04/20 13:06:59;;;;;;;0.98;0.95;;;;;;;;;;5242003;27;20010;-75
2024/04/20 13:09:24;;;;;;;4.07;1.45;;;;;;;;;;5214204;27;20069;-77
2024/04/20 13:11:51;;;;;;;2.35;1.40;;;;;;;;;;5272156;27;19998;-75
2024/04/20 13:14:17;;;;;;;2.22;1.70;;;;;;;;;;5241518;27;20052;-75
2024/04/20 13:16:42;;;;;;;3.95;2.10;;;;;;;;;;5271560;27;20019;-75
2024/04/20 13:19:08;;;;;;;1.75;1.50;;;;;;;;;;5241590;27;20326;-75
2024/04/20 13:21:35;;;;;;;7.03;1.77;;;;;;;;;;5241487;27;20002;-76
2024/04/20 13:24:00;;;;;;;2.60;1.70;;;;;;;;;;5242009;27;19998;-77
2024/04/20 13:26:26;;;;;;;1.90;1.58;;;;;;;;;;5242035;27;20446;-76
2024/04/20 13:28:51;;;;;;;2.45;1.50;;;;;;;;;;5271507;27;20481;-77
2024/04/20 13:31:17;;;;;;;2.42;1.67;;;;;;;;;;5241876;27;20063;-76
2024/04/20 13:33:42;;;;;;;3.78;1.70;;;;;;;;;;5242123;27;20034;-77
2024/04/20 13:36:08;;;;;;;1.75;1.30;;;;;;;;;;5241502;27;20033;-75
2024/04/20 13:38:34;;;;;;;1.38;1.10;;;;;;;;;;5240609;27;20129;-76
2024/04/20 13:41:07;;;;;;;1.67;1.10;;;;;;;;;;5270862;27;19998;-76
2024/04/20 13:43:33;;;;;;;7.13;1.30;;;;;;;;;;5241327;27;20559;-76
2024/04/20 13:46:11;;;;;;;4.75;2.22;;;;;;;;;;5271254;27;20021;-75
2024/04/20 13:48:38;;;;;;;4.10;1.60;;;;;;;;;;5241195;27;20002;-76
2024/04/20 13:51:04;;;;;;;2.25;1.63;;;;;;;;;;5270644;27;20014;-76
2024/04/20 13:53:30;;;;;;;2.95;1.52;;;;;;;;;;5271478;27;20013;-76
2024/04/20 13:55:56;;;;;;;4.57;1.67;;;;;;;;;;5271062;27;20010;-76
2024/04/20 13:58:26;;;;;;;3.10;1.85;;;;;;;;;;5240838;27;20013;-75
2024/04/20 14:00:51;;;;;;;3.13;1.50;;;;;;;;;;5241728;27;19998;-78
2024/04/20 14:03:17;;;;;;;2.40;1.50;;;;;;;;;;5241234;27;20113;-76
2024/04/20 14:05:47;;;;;;;3.40;1.35;;;;;;;;;;5241912;27;20594;-75
2024/04/20 14:08:14;;;;;;;1.35;1.25;;;;;;;;;;5270803;27;20006;-76
2024/04/20 14:10:39;;;;;;;4.63;1.98;;;;;;;;;;5241004;27;19998;-76
2024/04/20 14:13:14;;;;;;;2.30;1.73;;;;;;;;;;5270437;27;20007;-76
2024/04/20 14:15:41;;;;;;;3.85;1.75;;;;;;;;;;5240164;27;20108;-75
2024/04/20 14:18:06;;;;;;;1.90;1.30;;;;;;;;;;5240709;27;20003;-76
2024/04/20 14:20:34;;;;;;;4.20;1.20;;;;;;;;;;5240754;27;20014;-77
2024/04/20 14:23:00;;;;;;;2.70;1.15;;;;;;;;;;5270926;27;20544;-77
2024/04/20 14:25:26;;;;;;;1.42;1.25;;;;;;;;;;5240407;27;19998;-75
2024/04/20 14:27:54;;;;;;;1.73;1.27;;;;;;;;;;5241052;27;20066;-76
2024/04/20 14:30:20;;;;;;;3.00;1.52;;;;;;;;;;5240348;27;20042;-76
2024/04/20 14:32:46;;;;;;;2.58;1.38;;;;;;;;;;5240788;27;20007;-76
2024/04/20 14:35:11;;;;;;;1.58;1.10;;;;;;;;;;5269853;27;20046;-76
2024/04/20 14:37:37;;;;;;;1.42;1.20;;;;;;;;;;5240345;27;20002;-76
2024/04/20 14:40:03;;;;;;;2.30;1.30;;;;;;;;;;5240031;27;20016;-78
2024/04/20 14:42:29;;;;;;;2.72;1.38;;;;;;;;;;5240491;27;20002;-76
2024/04/20 14:44:54;;;;;;;1.40;1.20;;;;;;;;;;5240667;27;20021;-77
2024/04/20 14:47:20;;;;;;;1.40;1.10;;;;;;;;;;5270261;27;20084;-76
2024/04/20 14:49:46;;;;;;;1.92;1.27;;;;;;;;;;5269949;27;20457;-75